Time;durP1;ratioP1;P1;durP2;ratioP2;P2;SDS_P1;SDS_P2;PMS_P1;PMS_P2;Temp;Humidity;BMP_temperature;BMP_pressure;BME280_temperature;BME280_humidity;BME280_pressure;Samples;Min_cycle;Max_cycle;Signal;HPM_P1;HPM_P2
2023/07/14 00:01:37;;;;;;;2.28;1.40;;;19.20;98.60;;;;;;5034119;28;20213;-61
2023/07/14 00:04:11;;;;;;;3.22;1.30;;;19.20;99.10;;;;;;5033763;28;20304;-61
2023/07/14 00:06:38;;;;;;;4.93;1.55;;;19.10;99.60;;;;;;5033445;28;20210;-61
2023/07/14 00:09:13;;;;;;;2.83;1.60;;;19.00;99.90;;;;;;5033509;28;20671;-61
2023/07/14 00:11:39;;;;;;;7.03;1.80;;;18.90;99.90;;;;;;5033948;28;20566;-61
2023/07/14 00:14:06;;;;;;;2.35;1.40;;;18.80;99.90;;;;;;5033643;28;20388;-61
2023/07/14 00:16:33;;;;;;;3.22;1.15;;;18.80;99.90;;;;;;5033498;28;20206;-62
2023/07/14 00:18:59;;;;;;;3.70;1.20;;;18.80;99.90;;;;;;5033088;28;20695;-61
2023/07/14 00:21:28;;;;;;;4.35;1.60;;;18.80;99.90;;;;;;5033517;28;20289;-62
2023/07/14 00:23:58;;;;;;;3.15;1.42;;;18.80;99.90;;;;;;5033448;28;20324;-61
2023/07/14 00:26:26;;;;;;;2.17;1.38;;;18.80;99.90;;;;;;5033080;28;20777;-61
2023/07/14 00:28:53;;;;;;;2.55;1.45;;;18.80;99.90;;;;;;5033438;28;20206;-61
2023/07/14 00:31:21;;;;;;;5.60;1.90;;;18.80;99.90;;;;;;5033461;28;20288;-60
2023/07/14 00:33:50;;;;;;;3.80;1.40;;;18.70;99.90;;;;;;5033179;28;20257;-60
2023/07/14 00:36:17;;;;;;;3.25;1.60;;;18.70;99.90;;;;;;5032831;28;20308;-62
2023/07/14 00:38:46;;;;;;;2.60;1.67;;;18.60;99.90;;;;;;5032996;28;20393;-61
2023/07/14 00:41:18;;;;;;;3.85;1.38;;;18.60;99.90;;;;;;5033314;28;20214;-60
2023/07/14 00:43:46;;;;;;;3.83;1.55;;;18.50;99.90;;;;;;5033364;28;20269;-60
2023/07/14 00:46:22;;;;;;;5.13;1.70;;;18.40;99.90;;;;;;5032635;28;20693;-60
2023/07/14 00:48:50;;;;;;;4.22;2.00;;;18.40;99.90;;;;;;5033271;28;20213;-59
2023/07/14 00:51:19;;;;;;;4.55;1.60;;;18.40;99.90;;;;;;5033167;28;20211;-61
2023/07/14 00:53:47;;;;;;;4.50;1.60;;;18.30;99.90;;;;;;5032794;28;20241;-60
2023/07/14 00:56:42;;;;;;;9.02;1.80;;;18.30;99.90;;;;;;5032784;28;20214;-62
2023/07/14 00:59:14;;;;;;;2.30;1.45;;;18.20;99.90;;;;;;4998183;28;20625;-62
2023/07/14 01:02:14;;;;;;;4.13;1.58;;;18.10;99.90;;;;;;5033177;28;20273;-60
2023/07/14 01:04:44;;;;;;;3.55;1.73;;;17.90;99.90;;;;;;5032686;28;20420;-61
2023/07/14 01:07:12;;;;;;;3.60;1.50;;;17.90;99.90;;;;;;5032275;28;20237;-61
2023/07/14 01:09:41;;;;;;;2.53;1.40;;;17.80;99.90;;;;;;5032912;28;20305;-62
2023/07/14 01:12:10;;;;;;;3.95;1.42;;;17.70;99.90;;;;;;5032695;28;20226;-62
2023/07/14 01:14:41;;;;;;;2.00;1.58;;;17.60;99.90;;;;;;5032631;28;20226;-60
2023/07/14 01:17:09;;;;;;;1.77;1.58;;;17.60;99.90;;;;;;5032394;28;20218;-61
2023/07/14 01:19:43;;;;;;;4.68;1.80;;;17.60;99.90;;;;;;5032323;28;20575;-62
2023/07/14 01:22:16;;;;;;;3.15;1.52;;;17.50;99.90;;;;;;5032255;28;20202;-62
2023/07/14 01:24:50;;;;;;;2.80;1.40;;;17.40;99.90;;;;;;5032756;28;20241;-58
2023/07/14 01:27:18;;;;;;;4.68;2.05;;;17.30;99.90;;;;;;5032315;28;20229;-57
2023/07/14 01:29:46;;;;;;;3.78;1.65;;;17.30;99.90;;;;;;5031766;28;20218;-56
2023/07/14 01:32:18;;;;;;;3.95;1.67;;;17.20;99.90;;;;;;5031780;28;20563;-57
2023/07/14 01:34:45;;;;;;;2.35;1.60;;;17.30;99.90;;;;;;5032249;28;20258;-57
2023/07/14 01:37:13;;;;;;;2.83;1.48;;;17.30;99.90;;;;;;5032093;28;20229;-60
2023/07/14 01:39:40;;;;;;;3.65;1.60;;;17.20;99.90;;;;;;5032035;28;20209;-57
2023/07/14 01:42:07;;;;;;;3.75;1.67;;;17.20;99.90;;;;;;5032118;28;20217;-58
2023/07/14 01:44:36;;;;;;;4.72;1.80;;;17.10;99.90;;;;;;5031878;28;20230;-60
2023/07/14 01:47:05;;;;;;;2.55;1.63;;;17.00;99.90;;;;;;5031963;28;20218;-58
2023/07/14 01:49:38;;;;;;;3.78;1.65;;;16.90;99.90;;;;;;5032340;28;20256;-57
2023/07/14 01:52:09;;;;;;;2.42;1.75;;;16.90;99.90;;;;;;5031659;28;20212;-57
2023/07/14 01:54:39;;;;;;;3.67;2.10;;;17.00;99.90;;;;;;5031804;28;20229;-56
2023/07/14 01:57:12;;;;;;;8.27;1.92;;;16.90;99.90;;;;;;5031587;28;20206;-57
2023/07/14 01:59:44;;;;;;;5.55;1.92;;;16.90;99.90;;;;;;5032139;28;20285;-58
2023/07/14 02:02:16;;;;;;;5.75;1.95;;;16.80;99.90;;;;;;5031657;28;20422;-56
2023/07/14 02:04:46;;;;;;;3.88;2.10;;;16.70;99.90;;;;;;5031643;28;20317;-58
2023/07/14 02:07:15;;;;;;;3.63;1.98;;;16.70;99.90;;;;;;5031336;28;20214;-57
2023/07/14 02:09:42;;;;;;;3.70;2.13;;;16.70;99.90;;;;;;5031695;28;20562;-59
2023/07/14 02:12:14;;;;;;;2.90;1.88;;;16.60;99.90;;;;;;5031865;28;20213;-58
2023/07/14 02:14:47;;;;;;;3.35;2.00;;;16.60;99.90;;;;;;5031951;28;20265;-58
2023/07/14 02:17:23;;;;;;;4.35;1.95;;;16.50;99.90;;;;;;5031572;28;20588;-56
2023/07/14 02:19:51;;;;;;;4.75;2.08;;;16.40;99.90;;;;;;5031837;28;20209;-56
2023/07/14 02:22:18;;;;;;;3.35;2.10;;;16.40;99.90;;;;;;5031304;28;20213;-56
2023/07/14 02:24:47;;;;;;;3.03;2.13;;;16.40;99.90;;;;;;5031538;28;20241;-56
2023/07/14 02:27:13;;;;;;;3.92;1.92;;;16.40;99.90;;;;;;5031329;28;20206;-57
2023/07/14 02:29:41;;;;;;;4.18;1.90;;;16.40;99.90;;;;;;5031539;28;20202;-57
2023/07/14 02:32:15;;;;;;;4.65;2.08;;;16.30;99.90;;;;;;5031537;28;20206;-56
2023/07/14 02:34:47;;;;;;;3.60;2.40;;;16.40;99.90;;;;;;5031029;28;20595;-58
2023/07/14 02:37:43;;;;;;;5.83;2.37;;;16.30;99.90;;;;;;5031339;28;20206;-56
2023/07/14 02:40:12;;;;;;;4.63;1.92;;;16.20;99.90;;;;;;5031314;28;20206;-57
2023/07/14 02:42:39;;;;;;;5.53;2.20;;;16.00;99.90;;;;;;5030867;28;20597;-57
2023/07/14 02:45:09;;;;;;;3.83;1.80;;;16.10;99.90;;;;;;5030737;28;20721;-56
2023/07/14 02:47:39;;;;;;;3.63;2.20;;;16.10;99.90;;;;;;5030734;28;20574;-59
2023/07/14 02:50:07;;;;;;;3.33;2.00;;;16.10;99.90;;;;;;5031142;28;20210;-58
2023/07/14 02:52:33;;;;;;;4.25;2.00;;;16.20;99.90;;;;;;5030920;28;20207;-58
2023/07/14 02:55:02;;;;;;;3.40;1.80;;;16.20;99.90;;;;;;5030762;28;20713;-56
2023/07/14 02:57:29;;;;;;;3.27;2.00;;;16.20;99.90;;;;;;5030564;28;20666;-56
2023/07/14 02:59:55;;;;;;;4.20;2.60;;;16.10;99.90;;;;;;5030744;28;20563;-57
2023/07/14 03:02:24;;;;;;;3.93;2.10;;;16.10;99.90;;;;;;5031081;28;20213;-57
2023/07/14 03:04:51;;;;;;;4.30;2.10;;;15.90;99.90;;;;;;5030755;28;20230;-58
2023/07/14 03:07:17;;;;;;;4.67;1.93;;;16.10;99.90;;;;;;5030797;28;20209;-57
2023/07/14 03:09:44;;;;;;;5.70;2.13;;;16.10;99.90;;;;;;5030618;28;20666;-57
2023/07/14 03:12:11;;;;;;;3.87;1.90;;;16.10;99.90;;;;;;5030942;28;20641;-57
2023/07/14 03:14:37;;;;;;;4.97;2.13;;;16.10;99.90;;;;;;5031087;28;20301;-57
2023/07/14 03:17:04;;;;;;;5.72;2.20;;;16.00;99.90;;;;;;5030599;28;20237;-59
2023/07/14 03:19:33;;;;;;;3.10;1.80;;;16.00;99.90;;;;;;5030919;28;20206;-57
2023/07/14 03:21:59;;;;;;;4.10;1.87;;;15.90;99.90;;;;;;5030678;28;20210;-57
2023/07/14 03:24:26;;;;;;;5.43;2.23;;;15.90;99.90;;;;;;5030611;28;20238;-56
2023/07/14 03:26:53;;;;;;;4.13;2.00;;;15.90;99.90;;;;;;5030362;28;20642;-57
2023/07/14 03:29:19;;;;;;;3.77;1.97;;;15.80;99.90;;;;;;5030932;28;20206;-56
2023/07/14 03:31:46;;;;;;;5.65;2.20;;;15.80;99.90;;;;;;5030678;28;20229;-56
2023/07/14 03:34:13;;;;;;;6.03;2.10;;;15.80;99.90;;;;;;5030539;28;20245;-58
2023/07/14 03:36:41;;;;;;;4.40;2.00;;;15.80;99.90;;;;;;5030449;28;20700;-56
2023/07/14 03:39:24;;;;;;;3.90;2.30;;;15.80;99.90;;;;;;5030462;28;20540;-56
2023/07/14 03:41:51;;;;;;;3.80;2.10;;;15.80;99.90;;;;;;5030573;28;20213;-58
2023/07/14 03:44:18;;;;;;;2.50;1.80;;;15.80;99.90;;;;;;5030826;28;20233;-57
2023/07/14 03:46:45;;;;;;;6.53;2.10;;;15.80;99.90;;;;;;5031694;28;20214;-56
2023/07/14 03:49:13;;;;;;;4.67;2.13;;;15.80;99.90;;;;;;5031583;28;20593;-56
2023/07/14 03:51:41;;;;;;;3.50;2.20;;;15.90;99.90;;;;;;5030824;28;20688;-57
2023/07/14 03:54:08;;;;;;;4.37;2.10;;;15.90;99.90;;;;;;5032217;28;20234;-57
2023/07/14 03:56:35;;;;;;;4.33;2.10;;;16.00;99.90;;;;;;5034269;28;20221;-57
2023/07/14 03:59:02;;;;;;;3.87;2.40;;;16.00;99.90;;;;;;5033823;28;20618;-56
2023/07/14 04:01:29;;;;;;;2.93;1.97;;;16.10;99.90;;;;;;5033945;28;20216;-56
2023/07/14 04:03:56;;;;;;;3.73;2.20;;;16.20;99.90;;;;;;5033864;28;20225;-59
2023/07/14 04:06:23;;;;;;;3.37;2.03;;;16.20;99.90;;;;;;5033579;28;20631;-57
2023/07/14 04:08:52;;;;;;;3.22;1.77;;;16.30;99.90;;;;;;5034453;28;20205;-58
2023/07/14 04:11:19;;;;;;;2.80;1.70;;;16.50;99.90;;;;;;5034427;28;20248;-58
2023/07/14 04:13:46;;;;;;;4.60;1.80;;;16.60;99.90;;;;;;5034030;28;20559;-58
2023/07/14 04:16:13;;;;;;;2.83;1.97;;;16.80;99.90;;;;;;5033870;28;20214;-58
2023/07/14 04:18:39;;;;;;;4.60;1.90;;;17.00;99.90;;;;;;5033868;28;20391;-58
2023/07/14 04:21:08;;;;;;;9.93;2.35;;;17.20;99.90;;;;;;5033462;28;20294;-58
2023/07/14 04:23:36;;;;;;;6.00;1.90;;;17.50;99.90;;;;;;5033391;28;20237;-58
2023/07/14 04:26:07;;;;;;;2.72;1.67;;;17.60;99.90;;;;;;5033380;28;20205;-59
2023/07/14 04:28:35;;;;;;;5.88;1.70;;;17.80;99.90;;;;;;5033657;28;20210;-59
2023/07/14 04:31:02;;;;;;;2.60;1.90;;;17.90;99.90;;;;;;5033383;28;20667;-58
2023/07/14 04:33:29;;;;;;;3.33;1.70;;;18.00;99.90;;;;;;5033002;28;20261;-58
2023/07/14 04:35:58;;;;;;;3.20;1.80;;;18.00;99.90;;;;;;5033300;28;20233;-58
2023/07/14 04:38:25;;;;;;;3.30;1.88;;;18.10;99.90;;;;;;5033115;28;20740;-57
2023/07/14 04:40:52;;;;;;;4.97;1.95;;;18.30;99.90;;;;;;5033246;28;20202;-59
2023/07/14 04:43:20;;;;;;;2.75;1.95;;;18.40;99.90;;;;;;5033019;28;20301;-59
2023/07/14 04:45:47;;;;;;;3.97;1.95;;;18.50;99.90;;;;;;5033012;28;20214;-58
2023/07/14 04:48:17;;;;;;;2.70;1.77;;;18.60;99.90;;;;;;5032829;28;20213;-58
2023/07/14 04:50:45;;;;;;;3.50;1.90;;;18.80;99.90;;;;;;5033235;28;20290;-57
2023/07/14 04:53:12;;;;;;;5.55;2.00;;;18.90;99.90;;;;;;5032867;28;20722;-58
2023/07/14 04:55:41;;;;;;;2.28;1.70;;;19.10;99.90;;;;;;5033071;28;20210;-58
2023/07/14 04:58:08;;;;;;;5.00;2.00;;;19.20;99.90;;;;;;5032953;28;20245;-58
2023/07/14 05:00:38;;;;;;;3.47;1.60;;;19.40;99.90;;;;;;5032597;28;20225;-58
2023/07/14 05:03:05;;;;;;;3.10;1.88;;;19.60;99.90;;;;;;5032681;28;20210;-58
2023/07/14 05:05:33;;;;;;;4.25;2.03;;;19.80;99.90;;;;;;5032197;28;20303;-58
2023/07/14 05:08:00;;;;;;;2.97;1.40;;;20.10;99.90;;;;;;5032747;28;20233;-58
2023/07/14 05:10:28;;;;;;;3.83;2.50;;;20.40;99.90;;;;;;5032614;28;20206;-58
2023/07/14 05:12:57;;;;;;;3.88;1.73;;;20.70;99.90;;;;;;5032487;28;20662;-58
2023/07/14 05:15:25;;;;;;;5.00;2.20;;;21.00;99.90;;;;;;5032187;28;20613;-58
2023/07/14 05:17:53;;;;;;;3.42;2.15;;;21.40;99.90;;;;;;5032054;28;20237;-58
2023/07/14 05:20:21;;;;;;;4.35;2.00;;;21.70;99.90;;;;;;5032452;28;20207;-58
2023/07/14 05:22:50;;;;;;;2.20;1.50;;;22.10;99.90;;;;;;5032560;28;20209;-59
2023/07/14 05:25:18;;;;;;;5.18;2.15;;;22.50;99.90;;;;;;5032395;28;20203;-58
2023/07/14 05:27:46;;;;;;;2.80;1.52;;;22.80;99.90;;;;;;5032071;28;20233;-57
2023/07/14 05:30:14;;;;;;;3.97;1.70;;;23.50;99.90;;;;;;5032684;28;20206;-57
2023/07/14 05:32:43;;;;;;;4.30;1.88;;;24.00;98.30;;;;;;5032305;28;20214;-60
2023/07/14 05:35:13;;;;;;;3.42;1.77;;;24.40;97.00;;;;;;5031856;28;20656;-59
2023/07/14 05:37:40;;;;;;;3.13;1.73;;;24.50;96.10;;;;;;5032003;28;20217;-59
2023/07/14 05:40:10;;;;;;;6.65;2.40;;;24.80;95.10;;;;;;5031978;28;20682;-57
2023/07/14 05:42:37;;;;;;;3.03;1.73;;;25.40;93.80;;;;;;5032254;28;20206;-58
2023/07/14 05:45:05;;;;;;;6.18;2.08;;;25.80;91.90;;;;;;5031688;28;20226;-58
2023/07/14 05:47:34;;;;;;;3.63;1.70;;;26.00;91.00;;;;;;5031723;28;20264;-56
2023/07/14 05:50:01;;;;;;;4.82;1.80;;;26.10;90.30;;;;;;5031726;28;20705;-57
2023/07/14 05:52:29;;;;;;;5.93;1.90;;;26.20;89.30;;;;;;5031505;28;20705;-56
2023/07/14 05:54:56;;;;;;;8.73;1.90;;;26.20;89.00;;;;;;5031230;28;20777;-56
2023/07/14 05:57:23;;;;;;;3.78;1.85;;;26.20;86.90;;;;;;5031618;28;20242;-57
2023/07/14 05:59:50;;;;;;;1.70;1.30;;;26.30;85.90;;;;;;5031730;28;20206;-56
2023/07/14 06:02:16;;;;;;;5.60;1.80;;;26.80;84.20;;;;;;5031857;28;20242;-58
2023/07/14 06:04:43;;;;;;;6.20;1.80;;;27.20;82.70;;;;;;5031537;28;20255;-56
2023/07/14 06:07:10;;;;;;;2.00;1.40;;;28.20;80.40;;;;;;5031208;28;20235;-57
2023/07/14 06:09:39;;;;;;;3.85;1.92;;;29.30;75.80;;;;;;5031566;28;20217;-57
2023/07/14 06:12:09;;;;;;;3.25;1.60;;;29.90;73.10;;;;;;5031533;28;20264;-58
2023/07/14 06:14:38;;;;;;;7.55;1.67;;;30.20;70.90;;;;;;5031491;28;20694;-57
2023/07/14 06:17:08;;;;;;;2.45;1.50;;;30.60;69.10;;;;;;5030962;28;20210;-58
2023/07/14 06:19:35;;;;;;;3.53;1.50;;;30.50;69.00;;;;;;5031586;28;20217;-58
2023/07/14 06:22:02;;;;;;;6.65;1.50;;;30.20;69.20;;;;;;5031345;28;20217;-57
2023/07/14 06:24:29;;;;;;;3.20;1.70;;;30.00;69.00;;;;;;5031428;28;20245;-57
2023/07/14 06:26:58;;;;;;;4.05;1.50;;;29.70;69.20;;;;;;5031344;28;20206;-57
2023/07/14 06:29:25;;;;;;;3.83;1.67;;;29.20;70.70;;;;;;5031183;28;20260;-59
2023/07/14 06:31:52;;;;;;;3.38;1.58;;;29.00;71.20;;;;;;5031510;28;20210;-60
2023/07/14 06:34:18;;;;;;;1.95;1.38;;;29.70;69.70;;;;;;5031048;28;20329;-57
2023/07/14 06:36:45;;;;;;;4.28;1.63;;;30.80;65.50;;;;;;5031102;28;20211;-55
2023/07/14 06:39:12;;;;;;;5.30;1.67;;;31.00;63.90;;;;;;5031230;28;20246;-57
2023/07/14 06:41:39;;;;;;;2.28;1.58;;;31.20;62.70;;;;;;5031045;28;20280;-54
2023/07/14 06:44:08;;;;;;;2.92;1.40;;;31.40;62.20;;;;;;5030973;28;20709;-55
2023/07/14 06:46:34;;;;;;;4.65;1.75;;;31.40;61.40;;;;;;5030730;28;20232;-54
2023/07/14 06:49:03;;;;;;;4.00;1.83;;;31.80;60.20;;;;;;5030881;28;20229;-54
2023/07/14 06:51:29;;;;;;;2.95;1.70;;;32.30;59.20;;;;;;5031118;28;20260;-56
2023/07/14 06:53:56;;;;;;;2.55;1.40;;;33.30;57.70;;;;;;5030896;28;20330;-53
2023/07/14 06:56:23;;;;;;;2.72;1.40;;;34.50;55.20;;;;;;5031133;28;20205;-53
2023/07/14 06:58:50;;;;;;;4.18;1.60;;;35.60;53.50;;;;;;5031368;28;20213;-55
2023/07/14 07:01:18;;;;;;;2.83;1.48;;;35.90;52.00;;;;;;5031328;28;20293;-54
2023/07/14 07:03:45;;;;;;;2.55;1.45;;;36.20;50.70;;;;;;5030837;28;20690;-54
2023/07/14 07:06:12;;;;;;;3.78;1.42;;;36.70;49.40;;;;;;5030723;28;20202;-56
2023/07/14 07:08:38;;;;;;;4.50;1.48;;;36.90;48.50;;;;;;5031053;28;20210;-54
2023/07/14 07:11:05;;;;;;;2.65;1.30;;;36.40;48.90;;;;;;5030639;28;20213;-54
2023/07/14 07:13:32;;;;;;;5.18;1.60;;;36.40;48.90;;;;;;5031004;28;20230;-55
2023/07/14 07:15:58;;;;;;;3.08;1.42;;;36.80;48.50;;;;;;5030033;28;20710;-55
2023/07/14 07:18:28;;;;;;;5.57;1.58;;;36.90;48.10;;;;;;5030502;28;20256;-54
2023/07/14 07:20:55;;;;;;;3.90;1.45;;;37.40;47.10;;;;;;5030652;28;20202;-54
2023/07/14 07:23:22;;;;;;;3.30;1.10;;;38.10;46.00;;;;;;5030888;28;20240;-56
2023/07/14 07:25:49;;;;;;;3.63;1.40;;;39.20;44.50;;;;;;5030361;28;20578;-54
2023/07/14 07:28:17;;;;;;;2.20;1.20;;;39.50;43.10;;;;;;5031018;28;20213;-56
2023/07/14 07:30:44;;;;;;;3.30;1.20;;;39.60;42.80;;;;;;5034196;28;20764;-54
2023/07/14 07:33:11;;;;;;;2.25;1.25;;;39.40;42.80;;;;;;5034521;28;20257;-54
2023/07/14 07:35:41;;;;;;;2.85;1.27;;;39.60;42.60;;;;;;5034201;28;20546;-56
2023/07/14 07:38:10;;;;;;;5.25;1.95;;;39.70;41.90;;;;;;5034381;28;20700;-54
2023/07/14 07:40:37;;;;;;;2.45;1.20;;;39.60;42.50;;;;;;5034130;28;20437;-55
2023/07/14 07:43:03;;;;;;;2.08;1.10;;;39.70;42.00;;;;;;5034215;28;20217;-54
2023/07/14 07:45:30;;;;;;;3.70;1.40;;;39.90;41.40;;;;;;5033982;28;20217;-54
2023/07/14 07:47:57;;;;;;;3.75;1.50;;;39.90;41.10;;;;;;5033933;28;20206;-53
2023/07/14 07:50:26;;;;;;;3.10;1.15;;;40.20;40.80;;;;;;5033899;28;20682;-53
2023/07/14 07:52:54;;;;;;;1.73;1.23;;;40.40;40.30;;;;;;5033958;28;20206;-54
2023/07/14 07:55:21;;;;;;;3.17;1.30;;;40.50;39.90;;;;;;5033750;28;20237;-55
2023/07/14 07:57:48;;;;;;;3.10;1.45;;;40.70;39.70;;;;;;5033745;28;20206;-54
2023/07/14 08:00:15;;;;;;;3.17;1.30;;;40.40;39.30;;;;;;5033811;28;20217;-54
2023/07/14 08:02:42;;;;;;;4.63;1.10;;;40.10;39.90;;;;;;5033833;28;20733;-54
2023/07/14 08:05:12;;;;;;;2.42;1.23;;;39.70;40.00;;;;;;5033877;28;20218;-56
2023/07/14 08:07:39;;;;;;;3.45;1.20;;;39.30;40.60;;;;;;5033550;28;20210;-54
2023/07/14 08:10:08;;;;;;;2.53;1.10;;;39.30;40.10;;;;;;5033844;28;20210;-54
2023/07/14 08:12:36;;;;;;;3.60;1.33;;;39.40;39.80;;;;;;5034048;28;20206;-52
2023/07/14 08:15:03;;;;;;;2.05;1.10;;;39.90;39.10;;;;;;5033530;28;20325;-53
2023/07/14 08:17:31;;;;;;;2.80;1.40;;;40.10;39.10;;;;;;5033308;28;20206;-55
2023/07/14 08:19:58;;;;;;;3.05;1.40;;;39.70;38.90;;;;;;5033539;28;20213;-54
2023/07/14 08:22:26;;;;;;;2.13;1.20;;;39.90;39.20;;;;;;5033520;28;20210;-53
2023/07/14 08:24:56;;;;;;;3.33;1.33;;;40.30;38.20;;;;;;5033215;28;20258;-53
2023/07/14 08:27:24;;;;;;;3.25;1.38;;;40.30;37.80;;;;;;5033535;28;20213;-53
2023/07/14 08:29:53;;;;;;;3.53;1.42;;;39.80;38.30;;;;;;5033338;28;20206;-54
2023/07/14 08:32:20;;;;;;;3.05;1.20;;;39.40;38.10;;;;;;5033272;28;20271;-54
2023/07/14 08:34:47;;;;;;;2.03;1.35;;;38.80;38.90;;;;;;5033164;28;20257;-54
2023/07/14 08:37:14;;;;;;;2.58;1.40;;;38.20;38.80;;;;;;5032761;28;20206;-56
2023/07/14 08:39:41;;;;;;;4.03;1.70;;;38.20;39.40;;;;;;5032736;28;20260;-54
2023/07/14 08:42:19;;;;;;;3.80;1.02;;;37.90;39.50;;;;;;5033193;28;20214;-54
2023/07/14 08:45:08;;;;;;;2.58;1.33;;;37.60;39.60;;;;;;5033025;28;20254;-56
2023/07/14 08:47:49;;;;;;;3.53;1.30;;;37.90;39.60;;;;;;5032830;28;20214;-54
2023/07/14 08:50:21;;;;;;;2.70;1.25;;;37.70;40.20;;;;;;5033512;28;20206;-54
2023/07/14 08:52:55;;;;;;;3.05;1.45;;;37.20;40.40;;;;;;5033348;28;20214;-58
2023/07/14 08:55:25;;;;;;;3.67;1.40;;;36.30;41.10;;;;;;5029381;28;20713;-59
2023/07/14 08:57:54;;;;;;;3.25;1.80;;;35.00;42.30;;;;;;5031937;28;20210;-58
2023/07/14 09:00:27;;;;;;;4.63;1.30;;;34.00;44.20;;;;;;5032601;28;20213;-54
2023/07/14 09:03:05;;;;;;;2.65;1.30;;;32.70;46.20;;;;;;5032948;28;20213;-56
2023/07/14 09:05:33;;;;;;;4.05;1.63;;;31.70;47.70;;;;;;5032539;28;20205;-57
2023/07/14 09:08:00;;;;;;;4.55;1.52;;;31.20;49.10;;;;;;5031996;28;20565;-54
2023/07/14 09:10:37;;;;;;;3.55;1.67;;;31.30;48.80;;;;;;5032764;28;20213;-57
2023/07/14 09:13:10;;;;;;;3.83;1.55;;;31.50;48.80;;;;;;5032656;28;20202;-60
2023/07/14 09:15:38;;;;;;;2.67;1.50;;;31.80;48.60;;;;;;5032555;28;20221;-61
2023/07/14 09:18:22;;;;;;;2.97;1.60;;;31.90;47.90;;;;;;5032286;28;20690;-63
2023/07/14 09:21:03;;;;;;;7.38;1.65;;;32.00;48.00;;;;;;5032147;28;20308;-60
2023/07/14 09:23:49;;;;;;;7.15;1.45;;;31.90;47.90;;;;;;5032787;28;20268;-61
2023/07/14 09:26:23;;;;;;;3.65;1.33;;;31.80;47.90;;;;;;5032027;28;20309;-61
2023/07/14 09:28:52;;;;;;;3.47;1.60;;;31.50;47.80;;;;;;5032572;28;20212;-59
2023/07/14 09:31:37;;;;;;;3.40;1.50;;;31.30;48.60;;;;;;5032245;28;20206;-61
2023/07/14 09:34:12;;;;;;;4.72;1.35;;;31.40;49.10;;;;;;5032186;28;20232;-61
2023/07/14 09:36:40;;;;;;;2.40;1.33;;;31.40;48.60;;;;;;5031768;28;20233;-60
2023/07/14 09:39:15;;;;;;;4.40;1.50;;;31.10;49.30;;;;;;5032701;28;20206;-58
2023/07/14 09:41:43;;;;;;;2.70;1.20;;;31.10;49.30;;;;;;5032133;28;20217;-62
2023/07/14 09:44:11;;;;;;;4.90;1.35;;;31.20;48.40;;;;;;5031623;28;20229;-60
2023/07/14 09:46:47;;;;;;;3.90;1.58;;;31.50;48.40;;;;;;5032079;28;20206;-60
2023/07/14 09:49:27;;;;;;;5.90;1.50;;;31.50;48.70;;;;;;5032275;28;20206;-62
2023/07/14 09:52:02;;;;;;;3.08;1.40;;;31.80;48.50;;;;;;5031481;28;20194;-60
2023/07/14 09:54:29;;;;;;;4.03;1.35;;;31.90;47.90;;;;;;5031921;28;20231;-58
2023/07/14 09:57:02;;;;;;;2.42;1.33;;;32.10;47.80;;;;;;5031363;28;20610;-60
2023/07/14 09:59:29;;;;;;;1.67;1.08;;;32.20;47.40;;;;;;5032320;28;20206;-61
2023/07/14 10:01:59;;;;;;;6.40;1.65;;;32.20;47.20;;;;;;5031989;28;20214;-57
2023/07/14 10:04:28;;;;;;;2.90;1.67;;;32.10;47.40;;;;;;5031859;28;20222;-58
2023/07/14 10:07:15;;;;;;;2.97;1.60;;;32.00;47.70;;;;;;5031257;28;20579;-56
2023/07/14 10:09:58;;;;;;;5.13;1.50;;;32.10;47.90;;;;;;5032534;28;20490;-56
2023/07/14 10:12:25;;;;;;;5.28;1.42;;;32.30;47.40;;;;;;5031841;28;20214;-58
2023/07/14 10:14:53;;;;;;;3.70;1.63;;;32.70;46.40;;;;;;5031595;28;20228;-56
2023/07/14 10:17:26;;;;;;;2.45;1.52;;;32.70;46.50;;;;;;5031377;28;20566;-56
2023/07/14 10:19:56;;;;;;;2.88;1.30;;;32.60;46.40;;;;;;5032040;28;20728;-59
2023/07/14 10:22:25;;;;;;;3.85;1.30;;;32.30;46.80;;;;;;5032057;28;20268;-60
2023/07/14 10:24:57;;;;;;;2.45;1.67;;;32.30;47.00;;;;;;5031484;28;20234;-57
2023/07/14 10:27:27;;;;;;;2.60;1.40;;;32.60;47.50;;;;;;5031391;28;20253;-57
2023/07/14 10:30:15;;;;;;;3.92;1.50;;;32.90;46.30;;;;;;5031567;28;20206;-57
2023/07/14 10:32:48;;;;;;;3.40;1.48;;;33.10;45.80;;;;;;5031838;28;20214;-56
2023/07/14 10:35:19;;;;;;;3.03;1.20;;;33.20;46.10;;;;;;5031594;28;20230;-58
2023/07/14 10:37:51;;;;;;;2.50;1.50;;;33.30;45.60;;;;;;5031054;28;20269;-58
2023/07/14 10:40:21;;;;;;;5.18;1.30;;;33.30;47.10;;;;;;5031439;28;20670;-57
2023/07/14 10:42:57;;;;;;;2.03;1.10;;;33.30;45.90;;;;;;5032106;28;20210;-58
2023/07/14 10:45:25;;;;;;;2.67;1.33;;;33.40;45.80;;;;;;5031965;28;20221;-57
2023/07/14 10:47:55;;;;;;;4.20;1.23;;;33.50;45.90;;;;;;5031595;28;20301;-58
2023/07/14 10:50:27;;;;;;;2.58;1.30;;;33.50;45.50;;;;;;5031429;28;20670;-58
2023/07/14 10:52:59;;;;;;;2.30;1.40;;;33.50;45.90;;;;;;5031289;28;20210;-57
2023/07/14 10:55:29;;;;;;;3.38;1.45;;;33.60;44.60;;;;;;5031100;28;20308;-58
2023/07/14 10:58:00;;;;;;;2.63;1.52;;;33.60;45.10;;;;;;5031261;28;20643;-59
2023/07/14 11:00:32;;;;;;;4.38;1.98;;;33.60;45.60;;;;;;5031340;28;20213;-57
2023/07/14 11:03:17;;;;;;;3.00;1.40;;;33.50;44.40;;;;;;5032834;28;20206;-56
2023/07/14 11:05:53;;;;;;;3.30;1.58;;;33.00;44.90;;;;;;5035137;28;20313;-57
2023/07/14 11:08:20;;;;;;;5.07;1.50;;;32.70;45.70;;;;;;5035508;28;20210;-60
2023/07/14 11:10:55;;;;;;;2.40;1.23;;;32.80;45.80;;;;;;5035225;28;20214;-57
2023/07/14 11:13:33;;;;;;;4.35;1.35;;;33.00;46.10;;;;;;5034988;28;20240;-57
2023/07/14 11:16:08;;;;;;;3.55;1.60;;;33.10;44.60;;;;;;5035261;28;20697;-57
2023/07/14 11:18:47;;;;;;;4.25;1.58;;;33.30;45.10;;;;;;5035804;28;20221;-58
2023/07/14 11:21:33;;;;;;;2.45;1.33;;;33.50;45.30;;;;;;5035646;28;20202;-58
2023/07/14 11:24:14;;;;;;;4.28;1.23;;;33.80;45.00;;;;;;5035413;28;20593;-57
2023/07/14 11:27:02;;;;;;;1.60;1.20;;;34.10;43.90;;;;;;5035714;28;20206;-58
2023/07/14 11:29:39;;;;;;;2.25;1.00;;;34.40;44.00;;;;;;5035819;28;20206;-58
2023/07/14 11:32:20;;;;;;;5.10;1.80;;;34.60;43.80;;;;;;5035582;28;20618;-57
2023/07/14 11:34:56;;;;;;;3.75;1.60;;;34.20;44.00;;;;;;5035513;28;20229;-60
2023/07/14 11:37:39;;;;;;;1.83;1.15;;;34.00;44.20;;;;;;5035360;28;20225;-63
2023/07/14 11:40:14;;;;;;;6.05;1.63;;;33.80;44.50;;;;;;5035362;28;20214;-66
2023/07/14 11:42:41;;;;;;;2.92;1.30;;;33.60;44.40;;;;;;5035633;28;20205;-60
2023/07/14 11:45:21;;;;;;;3.75;1.40;;;33.60;44.60;;;;;;5035507;28;20230;-62
2023/07/14 11:47:49;;;;;;;3.72;1.40;;;33.60;44.80;;;;;;5035133;28;20206;-62
2023/07/14 11:50:28;;;;;;;4.30;1.50;;;33.80;44.60;;;;;;5035224;28;20214;-62
2023/07/14 11:53:03;;;;;;;3.08;1.60;;;33.80;44.20;;;;;;5035128;28;20749;-60
2023/07/14 11:55:31;;;;;;;2.20;1.33;;;33.50;44.30;;;;;;5034930;28;20212;-63
2023/07/14 11:58:13;;;;;;;2.05;1.40;;;33.30;44.30;;;;;;5035322;28;20217;-61
2023/07/14 12:00:42;;;;;;;4.97;1.27;;;33.20;44.60;;;;;;5035387;28;20624;-62
2023/07/14 12:03:25;;;;;;;3.25;1.45;;;33.20;44.70;;;;;;5034922;28;20286;-62
2023/07/14 12:09:03;;;;;;;3.20;1.33;;;33.20;45.00;;;;;;5089243;27;21130;-61
2023/07/14 12:11:43;;;;;;;4.18;1.40;;;33.70;44.90;;;;;;5089744;28;20236;-61
2023/07/14 12:14:27;;;;;;;2.42;1.55;;;33.70;44.70;;;;;;5078320;28;20228;-62
2023/07/14 12:16:54;;;;;;;2.22;1.35;;;33.40;44.80;;;;;;5069395;28;20208;-62
2023/07/14 12:19:24;;;;;;;3.40;1.38;;;33.20;44.70;;;;;;5069985;28;20215;-59
2023/07/14 12:22:03;;;;;;;3.10;1.40;;;33.20;44.70;;;;;;5069652;28;20270;-60
2023/07/14 12:24:32;;;;;;;5.00;1.42;;;33.20;44.70;;;;;;5069257;28;20278;-62
2023/07/14 12:27:26;;;;;;;2.63;1.27;;;33.30;44.30;;;;;;5069121;28;20229;-59
2023/07/14 12:30:02;;;;;;;3.80;1.48;;;33.40;44.50;;;;;;5069521;28;20208;-60
2023/07/14 12:32:29;;;;;;;2.22;1.10;;;33.60;44.00;;;;;;5068901;28;20783;-60
2023/07/14 12:34:57;;;;;;;2.78;1.50;;;33.60;44.10;;;;;;5068797;28;20259;-61
2023/07/14 12:37:24;;;;;;;2.63;1.05;;;33.30;43.80;;;;;;5068568;28;20278;-59
2023/07/14 12:39:54;;;;;;;3.50;1.30;;;33.00;44.40;;;;;;5068275;28;20201;-59
2023/07/14 12:42:22;;;;;;;2.90;1.42;;;32.70;44.60;;;;;;5068049;28;20208;-59
2023/07/14 12:44:53;;;;;;;4.05;1.30;;;32.40;45.90;;;;;;5068343;28;20236;-58
2023/07/14 12:47:20;;;;;;;3.28;1.60;;;32.00;46.30;;;;;;5067593;28;20221;-58
2023/07/14 12:49:50;;;;;;;2.70;1.52;;;31.70;46.90;;;;;;5068203;28;20233;-58
2023/07/14 12:52:23;;;;;;;2.13;1.35;;;31.60;47.00;;;;;;5068005;28;20205;-58
2023/07/14 12:54:51;;;;;;;2.22;1.35;;;31.70;47.20;;;;;;5067823;28;20712;-58
2023/07/14 12:57:20;;;;;;;3.45;1.50;;;31.80;47.00;;;;;;5067732;28;20209;-59
2023/07/14 12:59:51;;;;;;;2.85;1.17;;;31.90;46.90;;;;;;5067626;28;20296;-58
2023/07/14 13:02:18;;;;;;;3.97;1.40;;;32.10;46.90;;;;;;5067830;28;20213;-59
2023/07/14 13:04:46;;;;;;;3.45;1.40;;;32.10;47.00;;;;;;5067539;28;20252;-59
2023/07/14 13:07:16;;;;;;;4.32;1.58;;;32.00;46.70;;;;;;5067201;28;20228;-58